createdAt,value
2023-05-19T06:31:03.176Z,40.65
2023-05-19T06:33:43.123Z,40.72
2023-05-19T06:36:12.143Z,41.03
2023-05-19T09:16:13.990Z,44.30
2023-05-19T09:18:54.744Z,43.13
2023-05-19T09:21:31.608Z,43.77
2023-05-19T09:24:04.986Z,43.50
2023-05-19T09:26:39.386Z,43.25
2023-05-19T09:29:14.765Z,43.53
2023-05-19T09:31:52.678Z,43.50
2023-05-19T09:34:22.312Z,43.58
2023-05-19T09:36:53.471Z,43.35
2023-05-19T09:44:29.543Z,43.25
2023-05-19T09:46:59.903Z,43.20
2023-05-19T09:49:31.470Z,43.22
2023-05-19T09:52:05.941Z,43.28
2023-05-19T09:54:35.812Z,43.67
2023-05-19T09:57:08.536Z,45.53
2023-05-19T09:59:38.981Z,44.25
2023-05-19T10:02:11.433Z,44.08
2023-05-19T10:04:40.134Z,43.63
2023-05-19T10:07:13.637Z,44.08
2023-05-19T10:09:44.025Z,44.05
2023-05-19T10:12:13.377Z,43.83
2023-05-19T10:14:42.499Z,43.47
2023-05-19T10:17:12.533Z,43.70
2023-05-19T10:19:42.467Z,44.42
2023-05-19T10:22:12.504Z,43.90
2023-05-19T10:24:41.165Z,44.22
2023-05-19T10:27:14.986Z,44.17
2023-05-19T10:29:51.057Z,43.53
2023-05-19T10:32:24.841Z,43.88
2023-05-19T10:35:29.330Z,43.63
2023-05-19T10:38:14.291Z,43.65
2023-05-19T10:40:54.305Z,43.83
2023-05-19T10:43:32.293Z,43.50
2023-05-19T10:46:01.057Z,43.78
2023-05-19T10:48:36.782Z,43.60
2023-05-19T10:51:12.240Z,43.90
2023-05-19T10:53:50.148Z,44.35
2023-05-19T10:56:34.278Z,43.88
2023-05-19T10:59:03.510Z,43.70
2023-05-19T11:01:38.317Z,44.22
2023-05-19T11:04:09.282Z,43.95
2023-05-19T11:06:38.747Z,43.75
2023-05-19T11:09:16.915Z,43.47
2023-05-19T11:11:48.857Z,43.35
2023-05-19T11:14:20.631Z,43.53
2023-05-19T11:16:50.433Z,43.35
2023-05-19T11:19:27.261Z,43.65
2023-05-19T11:21:57.605Z,43.47
2023-05-19T11:24:40.741Z,43.20
2023-05-19T11:32:21.894Z,43.38
2023-05-19T11:34:51.198Z,43.17
2023-05-19T11:37:19.880Z,43.00
2023-05-19T19:39:10.760Z,40.42
2023-05-19T19:41:40.950Z,40.55
2023-05-19T19:44:09.587Z,40.50
2023-05-19T19:46:38.223Z,40.42
2023-05-19T19:49:08.358Z,40.30
2023-05-19T19:51:39.125Z,40.38
2023-05-19T19:54:10.638Z,40.35
2023-05-19T19:56:39.262Z,40.10
2023-05-19T19:59:07.800Z,40.25
2023-05-19T20:01:36.481Z,39.95
2023-05-19T20:04:05.254Z,40.33
2023-05-19T20:06:35.405Z,40.25
2023-05-19T20:09:05.026Z,40.05
2023-05-19T20:11:33.762Z,40.17
2023-05-19T20:14:04.909Z,40.28
2023-05-19T20:16:33.711Z,39.88
2023-05-19T20:19:02.656Z,39.97
2023-05-19T20:21:31.374Z,40.20
2023-05-19T20:24:01.518Z,39.97
2023-05-19T20:26:30.284Z,39.85
2023-05-19T20:29:01.155Z,40.10
2023-05-19T20:31:29.792Z,40.20
2023-05-19T20:33:59.354Z,39.80
2023-05-19T20:36:29.418Z,39.92
2023-05-19T20:38:58.092Z,45.25
2023-05-19T20:41:28.138Z,40.95
2023-05-19T20:43:59.132Z,42.15
2023-05-19T20:46:27.825Z,40.53
2023-05-19T20:48:56.622Z,40.13
2023-05-19T20:51:25.352Z,39.95
2023-05-19T20:53:56.247Z,40.00
2023-05-19T20:56:24.816Z,39.92
2023-05-19T20:58:54.831Z,39.97
2023-05-19T21:01:25.328Z,39.70
2023-05-19T21:03:53.934Z,39.80
2023-05-19T21:06:24.669Z,39.92
2023-05-19T21:08:55.566Z,39.97
2023-05-19T21:11:26.434Z,39.83
2023-05-19T21:13:56.773Z,39.78
2023-05-19T21:16:26.164Z,40.28
2023-05-19T21:18:54.832Z,39.80
2023-05-19T21:21:23.365Z,39.65
2023-05-19T21:23:51.936Z,39.65
2023-05-19T21:26:21.723Z,39.55
2023-05-19T21:28:50.263Z,40.15
2023-05-19T21:31:22.759Z,45.40
2023-05-19T21:33:51.492Z,42.28
2023-05-19T21:36:20.178Z,39.90
2023-05-19T21:38:48.772Z,39.50
2023-05-19T21:41:17.298Z,39.38
2023-05-19T21:43:47.174Z,39.63
2023-05-19T21:46:15.986Z,39.45
2023-05-19T21:48:46.020Z,39.17
2023-05-19T21:51:14.562Z,39.08
2023-05-19T21:53:43.217Z,39.40
2023-05-19T21:56:11.735Z,39.33
2023-05-19T21:58:40.497Z,45.33
2023-05-19T22:01:09.204Z,53.25
2023-05-19T22:03:37.832Z,45.78
2023-05-19T22:06:09.853Z,41.28
2023-05-19T22:08:40.833Z,40.30
2023-05-19T22:11:11.888Z,40.40
2023-05-19T22:13:41.248Z,39.67
2023-05-19T22:16:12.457Z,39.95
2023-05-19T22:18:41.046Z,39.45
2023-05-19T22:21:13.058Z,39.88
2023-05-19T22:23:44.238Z,39.83
2023-05-19T22:26:12.831Z,39.85
2023-05-19T22:28:41.848Z,39.85
2023-05-19T22:31:10.363Z,39.83
2023-05-19T22:33:38.903Z,39.90
2023-05-19T22:36:11.379Z,39.97
2023-05-19T22:38:40.001Z,39.55
2023-05-19T22:41:08.778Z,40.10
2023-05-19T22:43:38.765Z,40.38
2023-05-19T22:46:07.381Z,40.03
2023-05-19T22:48:38.976Z,40.00
2023-05-19T22:51:07.666Z,40.20
2023-05-19T22:53:37.668Z,39.97
2023-05-19T22:56:08.817Z,40.03
2023-05-19T22:58:37.347Z,39.72
2023-05-19T23:01:08.358Z,39.80
2023-05-19T23:03:39.504Z,40.00
2023-05-19T23:06:08.121Z,39.85
2023-05-19T23:08:38.126Z,39.72
2023-05-19T23:11:06.687Z,39.40
2023-05-19T23:13:35.358Z,39.67
2023-05-19T23:16:07.632Z,39.20
2023-05-19T23:18:36.235Z,39.13
2023-05-19T23:21:04.942Z,39.42
2023-05-19T23:23:37.664Z,39.23
2023-05-19T23:26:13.306Z,39.05
2023-05-19T23:28:43.361Z,39.53
2023-05-19T23:31:14.316Z,39.10
2023-05-19T23:33:43.892Z,39.25
2023-05-19T23:36:12.785Z,39.45
2023-05-19T23:38:42.820Z,39.55
2023-05-19T23:41:11.447Z,39.55
2023-05-19T23:43:40.460Z,39.55
2023-05-19T23:46:09.371Z,39.35
2023-05-19T23:48:38.039Z,40.10
2023-05-19T23:51:07.076Z,39.70
2023-05-19T23:53:35.626Z,39.78
2023-05-19T23:56:07.705Z,39.42
2023-05-19T23:58:39.215Z,39.70
